sensor_id;sensor_type;location;lat;lon;timestamp;P1;durP1;ratioP1;P2;durP2;ratioP2
55633;SDS011;41504;53.162;6.788;2023-07-31T00:01:35;6.13;;;3.45;;
55633;SDS011;41504;53.162;6.788;2023-07-31T00:04:04;6.88;;;3.65;;
55633;SDS011;41504;53.162;6.788;2023-07-31T00:06:30;5.70;;;3.42;;
55633;SDS011;41504;53.162;6.788;2023-07-31T00:08:55;6.93;;;3.50;;
55633;SDS011;41504;53.162;6.788;2023-07-31T00:11:21;6.88;;;3.47;;
55633;SDS011;41504;53.162;6.788;2023-07-31T00:13:47;6.90;;;3.42;;
55633;SDS011;41504;53.162;6.788;2023-07-31T00:16:12;8.50;;;3.67;;
55633;SDS011;41504;53.162;6.788;2023-07-31T00:18:38;5.80;;;3.15;;
55633;SDS011;41504;53.162;6.788;2023-07-31T00:21:04;5.70;;;3.17;;
55633;SDS011;41504;53.162;6.788;2023-07-31T00:23:30;5.22;;;2.60;;
55633;SDS011;41504;53.162;6.788;2023-07-31T00:25:55;5.45;;;2.60;;
55633;SDS011;41504;53.162;6.788;2023-07-31T00:28:21;5.20;;;2.55;;
55633;SDS011;41504;53.162;6.788;2023-07-31T00:30:47;4.88;;;2.58;;
55633;SDS011;41504;53.162;6.788;2023-07-31T00:33:12;4.90;;;2.80;;
55633;SDS011;41504;53.162;6.788;2023-07-31T00:35:38;4.60;;;2.58;;
55633;SDS011;41504;53.162;6.788;2023-07-31T00:38:04;5.60;;;2.70;;
55633;SDS011;41504;53.162;6.788;2023-07-31T00:40:33;6.00;;;2.95;;
55633;SDS011;41504;53.162;6.788;2023-07-31T00:43:00;5.70;;;3.22;;
55633;SDS011;41504;53.162;6.788;2023-07-31T00:45:26;5.30;;;3.17;;
55633;SDS011;41504;53.162;6.788;2023-07-31T00:47:54;5.72;;;2.95;;
55633;SDS011;41504;53.162;6.788;2023-07-31T00:50:19;6.35;;;3.08;;
55633;SDS011;41504;53.162;6.788;2023-07-31T00:52:47;5.80;;;3.00;;
55633;SDS011;41504;53.162;6.788;2023-07-31T00:55:13;5.75;;;3.13;;
55633;SDS011;41504;53.162;6.788;2023-07-31T00:57:39;5.55;;;2.90;;
55633;SDS011;41504;53.162;6.788;2023-07-31T01:00:07;6.03;;;3.28;;
55633;SDS011;41504;53.162;6.788;2023-07-31T01:02:33;5.75;;;2.90;;
55633;SDS011;41504;53.162;6.788;2023-07-31T01:04:59;4.88;;;2.80;;
55633;SDS011;41504;53.162;6.788;2023-07-31T01:10:16;5.43;;;2.88;;
55633;SDS011;41504;53.162;6.788;2023-07-31T01:12:53;7.25;;;3.00;;
55633;SDS011;41504;53.162;6.788;2023-07-31T01:15:20;6.22;;;3.10;;
55633;SDS011;41504;53.162;6.788;2023-07-31T01:17:46;6.20;;;3.00;;
55633;SDS011;41504;53.162;6.788;2023-07-31T01:20:19;4.68;;;2.60;;
55633;SDS011;41504;53.162;6.788;2023-07-31T01:26:39;5.05;;;2.83;;
55633;SDS011;41504;53.162;6.788;2023-07-31T01:31:25;5.10;;;2.80;;
55633;SDS011;41504;53.162;6.788;2023-07-31T01:33:54;4.80;;;2.88;;
55633;SDS011;41504;53.162;6.788;2023-07-31T01:36:23;12.68;;;2.85;;
55633;SDS011;41504;53.162;6.788;2023-07-31T01:38:49;6.05;;;2.83;;
55633;SDS011;41504;53.162;6.788;2023-07-31T01:41:18;4.65;;;2.58;;
55633;SDS011;41504;53.162;6.788;2023-07-31T01:43:45;5.10;;;2.45;;
55633;SDS011;41504;53.162;6.788;2023-07-31T01:46:11;5.50;;;2.80;;
55633;SDS011;41504;53.162;6.788;2023-07-31T01:48:37;4.07;;;2.40;;
55633;SDS011;41504;53.162;6.788;2023-07-31T01:51:02;4.65;;;2.15;;
55633;SDS011;41504;53.162;6.788;2023-07-31T01:53:29;4.57;;;2.53;;
55633;SDS011;41504;53.162;6.788;2023-07-31T01:55:56;4.22;;;1.92;;
55633;SDS011;41504;53.162;6.788;2023-07-31T01:58:22;3.65;;;2.10;;
55633;SDS011;41504;53.162;6.788;2023-07-31T02:00:48;4.30;;;2.10;;
55633;SDS011;41504;53.162;6.788;2023-07-31T02:03:13;3.42;;;1.90;;
55633;SDS011;41504;53.162;6.788;2023-07-31T02:05:45;4.18;;;2.00;;
55633;SDS011;41504;53.162;6.788;2023-07-31T02:08:12;5.68;;;2.20;;
55633;SDS011;41504;53.162;6.788;2023-07-31T02:10:38;3.45;;;2.10;;
55633;SDS011;41504;53.162;6.788;2023-07-31T02:13:04;3.08;;;1.70;;
55633;SDS011;41504;53.162;6.788;2023-07-31T02:15:30;3.80;;;1.80;;
55633;SDS011;41504;53.162;6.788;2023-07-31T02:17:56;5.05;;;1.80;;
55633;SDS011;41504;53.162;6.788;2023-07-31T02:20:22;3.80;;;1.70;;
55633;SDS011;41504;53.162;6.788;2023-07-31T02:22:48;1.67;;;1.10;;
55633;SDS011;41504;53.162;6.788;2023-07-31T02:25:14;2.55;;;1.40;;
55633;SDS011;41504;53.162;6.788;2023-07-31T02:27:39;2.65;;;1.60;;
55633;SDS011;41504;53.162;6.788;2023-07-31T02:30:05;2.38;;;1.30;;
55633;SDS011;41504;53.162;6.788;2023-07-31T02:32:34;2.22;;;1.30;;
55633;SDS011;41504;53.162;6.788;2023-07-31T02:35:00;1.75;;;1.20;;
55633;SDS011;41504;53.162;6.788;2023-07-31T02:37:26;1.90;;;1.20;;
55633;SDS011;41504;53.162;6.788;2023-07-31T02:39:54;1.95;;;1.08;;
55633;SDS011;41504;53.162;6.788;2023-07-31T02:42:19;1.40;;;1.05;;
55633;SDS011;41504;53.162;6.788;2023-07-31T02:44:45;1.85;;;1.20;;
55633;SDS011;41504;53.162;6.788;2023-07-31T02:47:11;1.90;;;1.00;;
55633;SDS011;41504;53.162;6.788;2023-07-31T02:49:37;1.77;;;1.05;;
55633;SDS011;41504;53.162;6.788;2023-07-31T02:52:03;2.42;;;1.30;;
55633;SDS011;41504;53.162;6.788;2023-07-31T02:54:29;2.20;;;1.15;;
55633;SDS011;41504;53.162;6.788;2023-07-31T02:56:55;1.55;;;0.98;;
55633;SDS011;41504;53.162;6.788;2023-07-31T02:59:20;1.90;;;1.13;;
55633;SDS011;41504;53.162;6.788;2023-07-31T03:01:46;1.92;;;1.10;;
55633;SDS011;41504;53.162;6.788;2023-07-31T03:04:12;1.80;;;1.00;;
55633;SDS011;41504;53.162;6.788;2023-07-31T03:06:38;1.52;;;1.10;;
55633;SDS011;41504;53.162;6.788;2023-07-31T03:09:03;1.35;;;1.08;;
55633;SDS011;41504;53.162;6.788;2023-07-31T03:11:29;1.85;;;1.10;;
55633;SDS011;41504;53.162;6.788;2023-07-31T03:13:55;1.90;;;1.25;;
55633;SDS011;41504;53.162;6.788;2023-07-31T03:16:21;2.35;;;1.40;;
55633;SDS011;41504;53.162;6.788;2023-07-31T03:18:46;2.78;;;1.20;;
55633;SDS011;41504;53.162;6.788;2023-07-31T03:21:12;1.92;;;1.08;;
55633;SDS011;41504;53.162;6.788;2023-07-31T03:23:39;2.53;;;1.20;;
55633;SDS011;41504;53.162;6.788;2023-07-31T03:26:06;1.73;;;0.98;;
55633;SDS011;41504;53.162;6.788;2023-07-31T03:28:32;2.70;;;1.27;;
55633;SDS011;41504;53.162;6.788;2023-07-31T03:30:58;2.15;;;1.30;;
55633;SDS011;41504;53.162;6.788;2023-07-31T03:33:25;2.55;;;1.10;;
55633;SDS011;41504;53.162;6.788;2023-07-31T03:35:51;3.42;;;1.15;;
55633;SDS011;41504;53.162;6.788;2023-07-31T03:38:17;1.50;;;1.10;;
55633;SDS011;41504;53.162;6.788;2023-07-31T03:40:43;2.55;;;1.10;;
55633;SDS011;41504;53.162;6.788;2023-07-31T03:43:09;1.85;;;1.20;;
55633;SDS011;41504;53.162;6.788;2023-07-31T03:45:34;2.15;;;1.20;;
55633;SDS011;41504;53.162;6.788;2023-07-31T03:48:00;1.90;;;1.13;;
55633;SDS011;41504;53.162;6.788;2023-07-31T03:50:26;1.60;;;1.10;;
55633;SDS011;41504;53.162;6.788;2023-07-31T03:52:52;2.88;;;1.20;;
55633;SDS011;41504;53.162;6.788;2023-07-31T03:55:18;1.88;;;1.20;;
55633;SDS011;41504;53.162;6.788;2023-07-31T03:57:43;2.20;;;1.30;;
55633;SDS011;41504;53.162;6.788;2023-07-31T04:00:09;2.28;;;1.30;;
55633;SDS011;41504;53.162;6.788;2023-07-31T04:02:35;2.50;;;1.20;;
55633;SDS011;41504;53.162;6.788;2023-07-31T04:05:04;2.60;;;1.20;;
55633;SDS011;41504;53.162;6.788;2023-07-31T04:07:30;2.47;;;1.10;;
55633;SDS011;41504;53.162;6.788;2023-07-31T04:09:56;2.60;;;1.10;;
55633;SDS011;41504;53.162;6.788;2023-07-31T04:12:22;2.03;;;1.10;;
55633;SDS011;41504;53.162;6.788;2023-07-31T04:14:48;1.45;;;1.00;;
55633;SDS011;41504;53.162;6.788;2023-07-31T04:17:15;1.52;;;1.10;;
55633;SDS011;41504;53.162;6.788;2023-07-31T04:19:42;2.10;;;1.17;;
55633;SDS011;41504;53.162;6.788;2023-07-31T04:22:08;2.15;;;1.10;;
55633;SDS011;41504;53.162;6.788;2023-07-31T04:24:33;1.40;;;1.00;;
55633;SDS011;41504;53.162;6.788;2023-07-31T04:26:59;0.85;;;0.85;;
55633;SDS011;41504;53.162;6.788;2023-07-31T04:29:25;1.45;;;0.90;;
55633;SDS011;41504;53.162;6.788;2023-07-31T04:31:50;2.45;;;0.93;;
55633;SDS011;41504;53.162;6.788;2023-07-31T04:34:16;1.20;;;0.90;;
55633;SDS011;41504;53.162;6.788;2023-07-31T04:36:42;1.80;;;1.10;;
55633;SDS011;41504;53.162;6.788;2023-07-31T04:39:08;2.20;;;1.17;;
55633;SDS011;41504;53.162;6.788;2023-07-31T04:41:34;1.83;;;1.00;;
55633;SDS011;41504;53.162;6.788;2023-07-31T04:43:59;2.40;;;1.00;;
55633;SDS011;41504;53.162;6.788;2023-07-31T04:46:25;2.20;;;0.90;;
55633;SDS011;41504;53.162;6.788;2023-07-31T04:48:51;4.00;;;1.40;;
55633;SDS011;41504;53.162;6.788;2023-07-31T04:51:16;1.58;;;1.08;;
55633;SDS011;41504;53.162;6.788;2023-07-31T04:53:42;1.42;;;0.93;;
55633;SDS011;41504;53.162;6.788;2023-07-31T04:56:08;1.50;;;0.90;;
55633;SDS011;41504;53.162;6.788;2023-07-31T04:58:33;2.05;;;0.90;;
55633;SDS011;41504;53.162;6.788;2023-07-31T05:01:02;2.65;;;1.08;;
55633;SDS011;41504;53.162;6.788;2023-07-31T05:03:28;1.25;;;0.80;;
55633;SDS011;41504;53.162;6.788;2023-07-31T05:05:53;1.58;;;0.98;;
55633;SDS011;41504;53.162;6.788;2023-07-31T05:08:19;2.92;;;1.20;;
55633;SDS011;41504;53.162;6.788;2023-07-31T05:10:45;2.72;;;1.10;;
55633;SDS011;41504;53.162;6.788;2023-07-31T05:13:10;2.15;;;1.38;;
55633;SDS011;41504;53.162;6.788;2023-07-31T05:15:40;2.05;;;1.20;;
55633;SDS011;41504;53.162;6.788;2023-07-31T05:18:06;1.30;;;0.93;;
55633;SDS011;41504;53.162;6.788;2023-07-31T05:20:32;2.08;;;1.20;;
55633;SDS011;41504;53.162;6.788;2023-07-31T05:22:58;2.88;;;1.00;;
55633;SDS011;41504;53.162;6.788;2023-07-31T05:25:24;2.65;;;1.10;;
55633;SDS011;41504;53.162;6.788;2023-07-31T05:27:49;3.45;;;1.60;;
55633;SDS011;41504;53.162;6.788;2023-07-31T05:30:15;2.20;;;1.05;;
55633;SDS011;41504;53.162;6.788;2023-07-31T05:32:41;2.65;;;1.30;;
55633;SDS011;41504;53.162;6.788;2023-07-31T05:35:07;2.35;;;1.30;;
55633;SDS011;41504;53.162;6.788;2023-07-31T05:37:32;1.67;;;1.17;;
55633;SDS011;41504;53.162;6.788;2023-07-31T05:39:58;2.47;;;1.30;;
55633;SDS011;41504;53.162;6.788;2023-07-31T05:42:24;2.75;;;1.27;;
55633;SDS011;41504;53.162;6.788;2023-07-31T05:44:50;2.75;;;1.10;;
55633;SDS011;41504;53.162;6.788;2023-07-31T05:47:15;3.47;;;1.13;;
55633;SDS011;41504;53.162;6.788;2023-07-31T05:49:41;2.55;;;1.13;;
55633;SDS011;41504;53.162;6.788;2023-07-31T05:52:07;2.17;;;1.02;;
55633;SDS011;41504;53.162;6.788;2023-07-31T05:54:33;1.48;;;1.00;;
55633;SDS011;41504;53.162;6.788;2023-07-31T05:56:58;3.63;;;1.20;;
55633;SDS011;41504;53.162;6.788;2023-07-31T05:59:24;3.97;;;1.58;;
55633;SDS011;41504;53.162;6.788;2023-07-31T06:01:50;3.40;;;1.40;;
55633;SDS011;41504;53.162;6.788;2023-07-31T06:04:16;3.72;;;1.45;;
55633;SDS011;41504;53.162;6.788;2023-07-31T06:06:45;3.05;;;1.30;;
55633;SDS011;41504;53.162;6.788;2023-07-31T06:09:10;3.88;;;1.50;;
55633;SDS011;41504;53.162;6.788;2023-07-31T06:11:36;4.80;;;1.70;;
55633;SDS011;41504;53.162;6.788;2023-07-31T06:14:02;3.83;;;1.60;;
55633;SDS011;41504;53.162;6.788;2023-07-31T06:16:28;3.30;;;1.60;;
55633;SDS011;41504;53.162;6.788;2023-07-31T06:18:54;4.45;;;1.85;;
55633;SDS011;41504;53.162;6.788;2023-07-31T06:21:19;4.50;;;1.90;;
55633;SDS011;41504;53.162;6.788;2023-07-31T06:23:45;4.38;;;1.85;;
55633;SDS011;41504;53.162;6.788;2023-07-31T06:26:11;3.88;;;1.67;;
55633;SDS011;41504;53.162;6.788;2023-07-31T06:28:40;4.45;;;1.95;;
55633;SDS011;41504;53.162;6.788;2023-07-31T06:31:06;4.55;;;1.75;;
55633;SDS011;41504;53.162;6.788;2023-07-31T06:33:32;4.25;;;2.00;;
55633;SDS011;41504;53.162;6.788;2023-07-31T06:35:58;6.53;;;2.45;;
55633;SDS011;41504;53.162;6.788;2023-07-31T06:38:24;5.40;;;2.63;;
55633;SDS011;41504;53.162;6.788;2023-07-31T06:40:50;7.78;;;3.00;;
55633;SDS011;41504;53.162;6.788;2023-07-31T06:43:16;7.40;;;3.40;;
55633;SDS011;41504;53.162;6.788;2023-07-31T06:45:42;9.43;;;3.28;;
55633;SDS011;41504;53.162;6.788;2023-07-31T06:48:08;8.25;;;3.22;;
55633;SDS011;41504;53.162;6.788;2023-07-31T06:50:34;9.57;;;3.97;;
55633;SDS011;41504;53.162;6.788;2023-07-31T06:52:59;13.10;;;4.68;;
55633;SDS011;41504;53.162;6.788;2023-07-31T06:55:25;18.55;;;5.88;;
55633;SDS011;41504;53.162;6.788;2023-07-31T06:57:52;17.73;;;6.63;;
55633;SDS011;41504;53.162;6.788;2023-07-31T07:00:19;18.35;;;6.40;;
55633;SDS011;41504;53.162;6.788;2023-07-31T07:02:47;19.05;;;6.43;;
55633;SDS011;41504;53.162;6.788;2023-07-31T07:05:14;17.50;;;6.88;;
55633;SDS011;41504;53.162;6.788;2023-07-31T07:07:40;18.17;;;7.05;;
55633;SDS011;41504;53.162;6.788;2023-07-31T07:10:06;16.15;;;6.22;;
55633;SDS011;41504;53.162;6.788;2023-07-31T07:12:33;17.10;;;6.47;;
55633;SDS011;41504;53.162;6.788;2023-07-31T07:14:59;19.90;;;6.57;;
55633;SDS011;41504;53.162;6.788;2023-07-31T07:17:26;18.85;;;6.82;;
55633;SDS011;41504;53.162;6.788;2023-07-31T07:19:52;16.88;;;6.20;;
55633;SDS011;41504;53.162;6.788;2023-07-31T07:22:18;17.15;;;6.40;;
55633;SDS011;41504;53.162;6.788;2023-07-31T07:24:44;15.82;;;5.82;;
55633;SDS011;41504;53.162;6.788;2023-07-31T07:27:10;16.75;;;6.00;;
55633;SDS011;41504;53.162;6.788;2023-07-31T07:29:35;15.43;;;6.07;;
55633;SDS011;41504;53.162;6.788;2023-07-31T07:32:07;14.45;;;6.00;;
55633;SDS011;41504;53.162;6.788;2023-07-31T07:34:33;15.20;;;5.95;;
55633;SDS011;41504;53.162;6.788;2023-07-31T07:37:02;12.98;;;5.93;;
55633;SDS011;41504;53.162;6.788;2023-07-31T07:39:28;15.43;;;6.00;;
55633;SDS011;41504;53.162;6.788;2023-07-31T07:41:53;15.05;;;5.68;;
55633;SDS011;41504;53.162;6.788;2023-07-31T07:44:19;14.25;;;5.47;;
55633;SDS011;41504;53.162;6.788;2023-07-31T07:46:45;14.32;;;5.50;;
55633;SDS011;41504;53.162;6.788;2023-07-31T07:49:10;12.45;;;5.00;;
55633;SDS011;41504;53.162;6.788;2023-07-31T07:51:36;10.90;;;4.40;;
55633;SDS011;41504;53.162;6.788;2023-07-31T07:54:02;9.10;;;3.75;;
55633;SDS011;41504;53.162;6.788;2023-07-31T07:56:28;8.40;;;3.20;;
55633;SDS011;41504;53.162;6.788;2023-07-31T07:58:58;9.00;;;3.92;;
55633;SDS011;41504;53.162;6.788;2023-07-31T08:01:23;8.90;;;3.88;;
55633;SDS011;41504;53.162;6.788;2023-07-31T08:03:50;8.70;;;3.35;;
55633;SDS011;41504;53.162;6.788;2023-07-31T08:06:15;7.38;;;3.13;;
55633;SDS011;41504;53.162;6.788;2023-07-31T08:08:42;6.75;;;2.90;;
55633;SDS011;41504;53.162;6.788;2023-07-31T08:11:08;7.00;;;3.10;;
55633;SDS011;41504;53.162;6.788;2023-07-31T08:13:59;8.07;;;2.92;;
55633;SDS011;41504;53.162;6.788;2023-07-31T08:16:25;6.30;;;2.53;;
55633;SDS011;41504;53.162;6.788;2023-07-31T08:18:50;5.55;;;2.42;;
55633;SDS011;41504;53.162;6.788;2023-07-31T08:21:16;6.25;;;2.42;;
55633;SDS011;41504;53.162;6.788;2023-07-31T08:23:42;6.20;;;2.85;;
55633;SDS011;41504;53.162;6.788;2023-07-31T08:26:08;5.50;;;2.58;;
55633;SDS011;41504;53.162;6.788;2023-07-31T08:28:39;7.25;;;2.65;;
55633;SDS011;41504;53.162;6.788;2023-07-31T08:31:05;6.18;;;2.88;;
55633;SDS011;41504;53.162;6.788;2023-07-31T08:33:31;5.53;;;2.83;;
55633;SDS011;41504;53.162;6.788;2023-07-31T08:35:56;5.35;;;2.55;;
55633;SDS011;41504;53.162;6.788;2023-07-31T08:38:22;10.35;;;3.10;;
55633;SDS011;41504;53.162;6.788;2023-07-31T08:40:50;5.57;;;2.50;;
55633;SDS011;41504;53.162;6.788;2023-07-31T08:43:16;5.70;;;2.60;;
55633;SDS011;41504;53.162;6.788;2023-07-31T08:45:42;5.05;;;2.00;;
55633;SDS011;41504;53.162;6.788;2023-07-31T08:48:08;5.13;;;2.00;;
55633;SDS011;41504;53.162;6.788;2023-07-31T08:50:34;4.63;;;2.15;;
55633;SDS011;41504;53.162;6.788;2023-07-31T08:53:04;3.08;;;1.77;;
55633;SDS011;41504;53.162;6.788;2023-07-31T08:55:30;4.05;;;1.98;;
55633;SDS011;41504;53.162;6.788;2023-07-31T08:57:57;5.00;;;2.00;;
55633;SDS011;41504;53.162;6.788;2023-07-31T09:00:24;7.32;;;1.88;;
55633;SDS011;41504;53.162;6.788;2023-07-31T09:03:02;4.72;;;2.08;;
55633;SDS011;41504;53.162;6.788;2023-07-31T09:05:31;3.63;;;1.85;;
55633;SDS011;41504;53.162;6.788;2023-07-31T09:07:58;4.85;;;2.00;;
55633;SDS011;41504;53.162;6.788;2023-07-31T09:10:27;2.92;;;1.70;;
55633;SDS011;41504;53.162;6.788;2023-07-31T09:12:52;5.20;;;2.03;;
55633;SDS011;41504;53.162;6.788;2023-07-31T09:15:19;4.75;;;2.00;;
55633;SDS011;41504;53.162;6.788;2023-07-31T09:17:46;4.35;;;1.92;;
55633;SDS011;41504;53.162;6.788;2023-07-31T09:20:13;3.97;;;2.00;;
55633;SDS011;41504;53.162;6.788;2023-07-31T09:22:43;4.13;;;1.80;;
55633;SDS011;41504;53.162;6.788;2023-07-31T09:27:46;4.22;;;1.92;;
55633;SDS011;41504;53.162;6.788;2023-07-31T09:30:15;3.60;;;1.80;;
55633;SDS011;41504;53.162;6.788;2023-07-31T09:32:46;3.45;;;1.63;;
55633;SDS011;41504;53.162;6.788;2023-07-31T09:38:01;3.03;;;1.52;;
55633;SDS011;41504;53.162;6.788;2023-07-31T09:40:32;2.88;;;1.30;;
55633;SDS011;41504;53.162;6.788;2023-07-31T09:43:01;2.47;;;1.40;;
55633;SDS011;41504;53.162;6.788;2023-07-31T09:45:33;2.58;;;1.50;;
55633;SDS011;41504;53.162;6.788;2023-07-31T09:48:14;2.00;;;1.30;;
55633;SDS011;41504;53.162;6.788;2023-07-31T09:50:42;2.92;;;1.40;;
55633;SDS011;41504;53.162;6.788;2023-07-31T09:53:09;2.13;;;1.20;;
55633;SDS011;41504;53.162;6.788;2023-07-31T09:55:35;2.25;;;1.25;;
55633;SDS011;41504;53.162;6.788;2023-07-31T09:58:06;2.22;;;1.25;;
55633;SDS011;41504;53.162;6.788;2023-07-31T10:00:33;3.13;;;1.20;;
55633;SDS011;41504;53.162;6.788;2023-07-31T10:03:01;1.55;;;1.15;;
55633;SDS011;41504;53.162;6.788;2023-07-31T10:08:01;1.58;;;0.90;;
55633;SDS011;41504;53.162;6.788;2023-07-31T10:10:28;1.75;;;1.10;;
55633;SDS011;41504;53.162;6.788;2023-07-31T10:12:55;1.75;;;0.98;;
55633;SDS011;41504;53.162;6.788;2023-07-31T10:15:22;1.17;;;0.90;;
55633;SDS011;41504;53.162;6.788;2023-07-31T10:17:49;1.20;;;1.00;;
55633;SDS011;41504;53.162;6.788;2023-07-31T10:20:15;0.70;;;0.70;;
55633;SDS011;41504;53.162;6.788;2023-07-31T10:22:45;1.15;;;0.90;;
55633;SDS011;41504;53.162;6.788;2023-07-31T10:25:11;2.10;;;1.00;;
55633;SDS011;41504;53.162;6.788;2023-07-31T10:27:41;0.70;;;0.70;;
55633;SDS011;41504;53.162;6.788;2023-07-31T10:30:17;0.85;;;0.85;;
55633;SDS011;41504;53.162;6.788;2023-07-31T10:32:45;1.38;;;0.88;;
55633;SDS011;41504;53.162;6.788;2023-07-31T10:35:15;0.73;;;0.70;;
55633;SDS011;41504;53.162;6.788;2023-07-31T10:37:43;1.20;;;0.88;;
55633;SDS011;41504;53.162;6.788;2023-07-31T10:40:12;1.52;;;0.90;;
55633;SDS011;41504;53.162;6.788;2023-07-31T10:42:46;0.98;;;0.90;;
55633;SDS011;41504;53.162;6.788;2023-07-31T10:45:14;1.45;;;0.90;;
55633;SDS011;41504;53.162;6.788;2023-07-31T10:48:20;0.80;;;0.80;;
55633;SDS011;41504;53.162;6.788;2023-07-31T10:50:48;2.03;;;1.10;;
55633;SDS011;41504;53.162;6.788;2023-07-31T10:53:31;2.75;;;0.95;;
55633;SDS011;41504;53.162;6.788;2023-07-31T10:58:30;2.20;;;1.10;;
55633;SDS011;41504;53.162;6.788;2023-07-31T11:01:18;2.00;;;0.90;;
55633;SDS011;41504;53.162;6.788;2023-07-31T11:03:47;1.38;;;1.00;;
55633;SDS011;41504;53.162;6.788;2023-07-31T11:06:15;2.05;;;1.00;;
55633;SDS011;41504;53.162;6.788;2023-07-31T11:08:45;1.92;;;1.08;;
55633;SDS011;41504;53.162;6.788;2023-07-31T11:11:16;2.25;;;1.20;;
55633;SDS011;41504;53.162;6.788;2023-07-31T11:13:48;2.72;;;1.00;;
55633;SDS011;41504;53.162;6.788;2023-07-31T11:16:15;0.70;;;0.70;;
55633;SDS011;41504;53.162;6.788;2023-07-31T11:18:42;1.40;;;0.80;;
55633;SDS011;41504;53.162;6.788;2023-07-31T11:21:13;1.42;;;0.90;;
55633;SDS011;41504;53.162;6.788;2023-07-31T11:23:40;1.15;;;0.80;;
55633;SDS011;41504;53.162;6.788;2023-07-31T11:26:10;2.95;;;0.85;;
55633;SDS011;41504;53.162;6.788;2023-07-31T11:28:36;1.38;;;0.60;;
55633;SDS011;41504;53.162;6.788;2023-07-31T11:31:03;0.50;;;0.50;;
55633;SDS011;41504;53.162;6.788;2023-07-31T11:33:29;1.52;;;0.60;;
55633;SDS011;41504;53.162;6.788;2023-07-31T11:35:56;3.58;;;1.00;;
55633;SDS011;41504;53.162;6.788;2023-07-31T11:38:22;2.08;;;0.70;;
55633;SDS011;41504;53.162;6.788;2023-07-31T11:40:59;2.40;;;0.63;;
55633;SDS011;41504;53.162;6.788;2023-07-31T11:43:33;0.52;;;0.50;;
55633;SDS011;41504;53.162;6.788;2023-07-31T11:45:59;1.02;;;0.60;;
55633;SDS011;41504;53.162;6.788;2023-07-31T11:51:00;0.60;;;0.60;;
55633;SDS011;41504;53.162;6.788;2023-07-31T11:54:00;1.13;;;0.70;;
55633;SDS011;41504;53.162;6.788;2023-07-31T11:56:21;1.23;;;0.70;;
55633;SDS011;41504;53.162;6.788;2023-07-31T11:58:58;0.70;;;0.70;;
55633;SDS011;41504;53.162;6.788;2023-07-31T12:01:24;2.85;;;0.90;;
55633;SDS011;41504;53.162;6.788;2023-07-31T12:03:52;2.08;;;0.90;;
55633;SDS011;41504;53.162;6.788;2023-07-31T12:06:19;1.20;;;0.95;;
55633;SDS011;41504;53.162;6.788;2023-07-31T12:08:46;1.73;;;0.90;;
55633;SDS011;41504;53.162;6.788;2023-07-31T12:11:12;1.65;;;1.10;;
55633;SDS011;41504;53.162;6.788;2023-07-31T12:13:40;2.13;;;0.90;;
55633;SDS011;41504;53.162;6.788;2023-07-31T12:16:09;2.15;;;1.13;;
55633;SDS011;41504;53.162;6.788;2023-07-31T12:18:36;2.28;;;0.93;;
55633;SDS011;41504;53.162;6.788;2023-07-31T12:21:06;1.63;;;0.95;;
55633;SDS011;41504;53.162;6.788;2023-07-31T12:23:33;2.08;;;1.10;;
55633;SDS011;41504;53.162;6.788;2023-07-31T12:26:14;1.27;;;1.08;;
55633;SDS011;41504;53.162;6.788;2023-07-31T12:28:46;3.10;;;1.40;;
55633;SDS011;41504;53.162;6.788;2023-07-31T12:31:18;3.50;;;1.52;;
55633;SDS011;41504;53.162;6.788;2023-07-31T12:33:49;4.82;;;1.70;;
55633;SDS011;41504;53.162;6.788;2023-07-31T12:36:17;3.38;;;1.70;;
55633;SDS011;41504;53.162;6.788;2023-07-31T12:38:46;2.88;;;1.63;;
55633;SDS011;41504;53.162;6.788;2023-07-31T12:41:12;4.95;;;1.55;;
55633;SDS011;41504;53.162;6.788;2023-07-31T12:43:39;4.00;;;1.63;;
55633;SDS011;41504;53.162;6.788;2023-07-31T12:46:09;3.58;;;1.52;;
55633;SDS011;41504;53.162;6.788;2023-07-31T12:48:36;3.85;;;1.70;;
55633;SDS011;41504;53.162;6.788;2023-07-31T12:51:02;4.00;;;1.60;;
55633;SDS011;41504;53.162;6.788;2023-07-31T12:53:28;4.43;;;1.90;;
55633;SDS011;41504;53.162;6.788;2023-07-31T12:55:55;3.60;;;1.60;;
55633;SDS011;41504;53.162;6.788;2023-07-31T12:58:21;4.30;;;1.60;;
55633;SDS011;41504;53.162;6.788;2023-07-31T13:00:47;4.00;;;1.70;;
55633;SDS011;41504;53.162;6.788;2023-07-31T13:03:13;3.85;;;1.50;;
55633;SDS011;41504;53.162;6.788;2023-07-31T13:05:41;3.13;;;1.40;;
55633;SDS011;41504;53.162;6.788;2023-07-31T13:08:07;4.13;;;1.65;;
55633;SDS011;41504;53.162;6.788;2023-07-31T13:10:33;6.45;;;1.50;;
55633;SDS011;41504;53.162;6.788;2023-07-31T13:12:58;4.57;;;1.50;;
55633;SDS011;41504;53.162;6.788;2023-07-31T13:15:24;2.97;;;1.48;;
55633;SDS011;41504;53.162;6.788;2023-07-31T13:17:50;3.63;;;1.60;;
55633;SDS011;41504;53.162;6.788;2023-07-31T13:20:19;3.60;;;1.60;;
55633;SDS011;41504;53.162;6.788;2023-07-31T13:22:45;4.07;;;1.70;;
55633;SDS011;41504;53.162;6.788;2023-07-31T13:25:10;6.00;;;2.00;;
55633;SDS011;41504;53.162;6.788;2023-07-31T13:27:39;5.45;;;2.13;;
55633;SDS011;41504;53.162;6.788;2023-07-31T13:30:05;5.07;;;1.92;;
55633;SDS011;41504;53.162;6.788;2023-07-31T13:32:34;6.15;;;2.17;;
55633;SDS011;41504;53.162;6.788;2023-07-31T13:35:04;5.35;;;2.30;;
55633;SDS011;41504;53.162;6.788;2023-07-31T13:37:31;5.85;;;2.53;;
55633;SDS011;41504;53.162;6.788;2023-07-31T13:39:56;7.05;;;2.55;;
55633;SDS011;41504;53.162;6.788;2023-07-31T13:42:22;5.68;;;2.50;;
55633;SDS011;41504;53.162;6.788;2023-07-31T13:44:48;7.30;;;2.50;;
55633;SDS011;41504;53.162;6.788;2023-07-31T13:47:14;5.55;;;2.33;;
55633;SDS011;41504;53.162;6.788;2023-07-31T13:49:44;6.45;;;2.30;;
55633;SDS011;41504;53.162;6.788;2023-07-31T13:52:10;6.55;;;2.33;;
55633;SDS011;41504;53.162;6.788;2023-07-31T13:54:39;5.68;;;2.33;;
55633;SDS011;41504;53.162;6.788;2023-07-31T13:57:05;4.70;;;2.20;;
55633;SDS011;41504;53.162;6.788;2023-07-31T13:59:34;5.68;;;2.10;;
55633;SDS011;41504;53.162;6.788;2023-07-31T14:02:01;5.35;;;2.40;;
55633;SDS011;41504;53.162;6.788;2023-07-31T14:04:28;5.75;;;2.38;;
55633;SDS011;41504;53.162;6.788;2023-07-31T14:06:54;5.85;;;2.38;;
55633;SDS011;41504;53.162;6.788;2023-07-31T14:09:21;6.07;;;2.65;;
55633;SDS011;41504;53.162;6.788;2023-07-31T14:11:47;4.72;;;2.40;;
55633;SDS011;41504;53.162;6.788;2023-07-31T14:14:13;9.45;;;3.28;;
55633;SDS011;41504;53.162;6.788;2023-07-31T14:16:39;6.28;;;2.90;;
55633;SDS011;41504;53.162;6.788;2023-07-31T14:19:05;7.32;;;2.92;;
55633;SDS011;41504;53.162;6.788;2023-07-31T14:21:33;7.13;;;2.90;;
55633;SDS011;41504;53.162;6.788;2023-07-31T14:23:59;8.13;;;3.38;;
55633;SDS011;41504;53.162;6.788;2023-07-31T14:26:25;7.85;;;2.97;;
55633;SDS011;41504;53.162;6.788;2023-07-31T14:28:50;8.13;;;3.47;;
55633;SDS011;41504;53.162;6.788;2023-07-31T14:31:16;9.13;;;3.30;;
55633;SDS011;41504;53.162;6.788;2023-07-31T14:33:42;6.68;;;2.78;;
55633;SDS011;41504;53.162;6.788;2023-07-31T14:36:07;6.65;;;2.92;;
55633;SDS011;41504;53.162;6.788;2023-07-31T14:38:33;7.20;;;2.78;;
55633;SDS011;41504;53.162;6.788;2023-07-31T14:40:59;7.70;;;2.97;;
55633;SDS011;41504;53.162;6.788;2023-07-31T14:43:25;7.68;;;3.30;;
55633;SDS011;41504;53.162;6.788;2023-07-31T14:45:50;10.07;;;3.45;;
55633;SDS011;41504;53.162;6.788;2023-07-31T14:48:18;8.80;;;3.15;;
55633;SDS011;41504;53.162;6.788;2023-07-31T14:50:44;7.45;;;3.00;;
55633;SDS011;41504;53.162;6.788;2023-07-31T14:53:10;8.20;;;3.10;;
55633;SDS011;41504;53.162;6.788;2023-07-31T14:55:35;8.98;;;4.25;;
55633;SDS011;41504;53.162;6.788;2023-07-31T14:58:04;9.20;;;3.30;;
55633;SDS011;41504;53.162;6.788;2023-07-31T15:00:29;8.25;;;3.38;;
55633;SDS011;41504;53.162;6.788;2023-07-31T15:02:55;9.15;;;3.53;;
55633;SDS011;41504;53.162;6.788;2023-07-31T15:05:23;9.38;;;3.70;;
55633;SDS011;41504;53.162;6.788;2023-07-31T15:07:49;7.40;;;3.78;;